createdAt,value
2022-07-29T00:01:37.607Z,16.71
2022-07-29T00:04:07.735Z,16.73
2022-07-29T00:06:37.590Z,16.69
2022-07-29T00:09:07.684Z,16.68
2022-07-29T00:11:37.661Z,16.70
2022-07-29T00:14:08.393Z,16.71
2022-07-29T00:16:37.800Z,16.69
2022-07-29T00:19:07.921Z,16.70
2022-07-29T00:21:37.810Z,16.72
2022-07-29T00:24:07.853Z,16.68
2022-07-29T00:26:38.013Z,16.72
2022-07-29T00:29:33.205Z,16.68
2022-07-29T00:31:37.595Z,16.66
2022-07-29T00:36:37.589Z,16.63
2022-07-29T00:39:07.554Z,16.65
2022-07-29T00:41:37.676Z,16.68
2022-07-29T00:44:07.560Z,16.71
2022-07-29T00:49:08.191Z,16.65
2022-07-29T00:51:38.079Z,16.69
2022-07-29T00:54:08.125Z,16.71
2022-07-29T00:56:37.696Z,16.68
2022-07-29T00:59:07.660Z,16.63
2022-07-29T01:01:37.639Z,16.69
2022-07-29T01:06:37.779Z,16.70
2022-07-29T01:09:08.688Z,16.63
2022-07-29T01:11:38.519Z,16.66
2022-07-29T01:14:09.320Z,16.65
2022-07-29T01:16:45.986Z,16.71
2022-07-29T01:19:22.522Z,16.61
2022-07-29T01:21:51.368Z,16.65
2022-07-29T01:24:20.899Z,16.69
2022-07-29T01:29:12.769Z,16.63
2022-07-29T01:31:58.950Z,16.58
2022-07-29T01:34:11.032Z,16.60
2022-07-29T01:36:45.458Z,16.63
2022-07-29T01:39:11.784Z,16.62
2022-07-29T01:44:15.247Z,16.59
2022-07-29T01:46:41.576Z,16.65
2022-07-29T01:49:11.251Z,16.57
2022-07-29T01:51:44.512Z,16.62
2022-07-29T01:54:13.381Z,16.60
2022-07-29T01:56:40.676Z,16.65
2022-07-29T01:59:09.299Z,16.66
2022-07-29T02:01:40.832Z,16.65
2022-07-29T02:04:10.969Z,16.67
2022-07-29T02:06:40.794Z,16.71
2022-07-29T02:11:38.776Z,16.72
2022-07-29T02:16:40.267Z,16.74
2022-07-29T02:19:09.899Z,16.69
2022-07-29T02:21:38.997Z,16.75
2022-07-29T02:24:11.988Z,16.72
2022-07-29T02:26:41.387Z,16.73
2022-07-29T02:29:09.849Z,16.68
2022-07-29T02:31:39.549Z,16.69
2022-07-29T02:34:10.472Z,16.70
2022-07-29T02:36:38.791Z,16.68
2022-07-29T02:44:11.068Z,16.69
2022-07-29T02:46:42.853Z,16.70
2022-07-29T02:49:12.004Z,16.68
2022-07-29T02:51:44.998Z,16.72
2022-07-29T02:54:10.362Z,16.70
2022-07-29T02:56:40.481Z,16.69
2022-07-29T02:59:11.545Z,16.62
2022-07-29T03:01:42.539Z,16.64
2022-07-29T03:04:10.666Z,16.66
2022-07-29T03:06:39.018Z,16.65
2022-07-29T03:09:12.970Z,16.62
2022-07-29T03:11:41.424Z,16.64
2022-07-29T03:14:07.910Z,16.53
2022-07-29T03:16:41.106Z,16.55
2022-07-29T03:19:08.147Z,16.54
2022-07-29T03:21:37.726Z,16.55
2022-07-29T03:24:10.528Z,16.56
2022-07-29T03:26:37.891Z,16.58
2022-07-29T03:29:07.597Z,16.54
2022-07-29T03:31:37.688Z,16.59
2022-07-29T03:36:37.691Z,16.62
2022-07-29T03:39:10.542Z,16.54
2022-07-29T03:41:39.415Z,16.56
2022-07-29T03:44:09.008Z,16.59
2022-07-29T03:51:38.969Z,16.56
2022-07-29T03:54:14.117Z,16.55
2022-07-29T03:59:08.369Z,16.52
2022-07-29T04:06:39.715Z,16.49
2022-07-29T04:09:09.906Z,16.42
2022-07-29T04:12:01.889Z,16.49
2022-07-29T04:16:37.835Z,16.47
2022-07-29T04:19:07.835Z,16.48
2022-07-29T04:21:38.323Z,16.49
2022-07-29T04:24:08.483Z,16.51
2022-07-29T04:26:37.700Z,16.52
2022-07-29T04:29:07.900Z,16.48
2022-07-29T04:31:38.017Z,16.51
2022-07-29T04:34:09.292Z,16.45
2022-07-29T04:36:37.729Z,16.48
2022-07-29T04:39:07.657Z,16.43
2022-07-29T04:41:37.822Z,16.48
2022-07-29T04:44:07.809Z,16.50
2022-07-29T04:46:37.795Z,16.52
2022-07-29T04:49:08.071Z,16.49
2022-07-29T04:51:37.820Z,16.54
2022-07-29T04:54:07.986Z,16.58
2022-07-29T04:56:37.758Z,16.59
2022-07-29T04:59:07.953Z,16.56
2022-07-29T05:01:37.733Z,16.61
2022-07-29T05:04:07.643Z,16.63
2022-07-29T05:06:37.715Z,16.65
2022-07-29T05:09:07.743Z,16.63
2022-07-29T05:11:37.709Z,16.68
2022-07-29T05:14:07.716Z,16.73
2022-07-29T05:16:39.434Z,16.77
2022-07-29T05:19:13.668Z,16.74
2022-07-29T05:21:37.770Z,16.78
2022-07-29T05:24:08.020Z,16.81
2022-07-29T05:26:37.855Z,16.86
2022-07-29T05:31:37.927Z,16.92
2022-07-29T05:34:07.716Z,16.95
2022-07-29T05:39:07.932Z,16.96
2022-07-29T05:41:37.824Z,17.03
2022-07-29T05:44:07.942Z,17.06
2022-07-29T05:46:37.834Z,17.14
2022-07-29T05:49:07.769Z,17.16
2022-07-29T05:51:37.962Z,17.23
2022-07-29T05:54:07.972Z,17.31
2022-07-29T05:56:37.742Z,17.37
2022-07-29T05:59:17.977Z,17.39
2022-07-29T06:01:39.419Z,17.46
2022-07-29T06:04:08.034Z,17.54
2022-07-29T06:06:37.940Z,17.56
2022-07-29T06:09:12.375Z,17.66
2022-07-29T06:11:37.710Z,17.77
2022-07-29T06:14:07.697Z,17.93
2022-07-29T06:16:37.842Z,18.05
2022-07-29T06:19:07.775Z,18.17
2022-07-29T06:21:42.186Z,18.29
2022-07-29T06:24:08.217Z,18.45
2022-07-29T06:26:39.958Z,18.61
2022-07-29T06:29:10.611Z,18.71
2022-07-29T06:31:38.432Z,18.86
2022-07-29T06:34:07.750Z,19.01
2022-07-29T06:36:38.445Z,19.18
2022-07-29T06:39:08.143Z,19.33
2022-07-29T06:41:38.140Z,19.61
2022-07-29T06:44:07.977Z,19.94
2022-07-29T06:46:37.954Z,20.20
2022-07-29T06:49:08.062Z,20.46
2022-07-29T06:51:37.755Z,20.79
2022-07-29T06:54:07.818Z,20.97
2022-07-29T06:56:39.254Z,21.23
2022-07-29T06:59:10.142Z,21.47
2022-07-29T07:01:39.369Z,21.74
2022-07-29T07:04:09.135Z,22.00
2022-07-29T07:06:37.953Z,22.24
2022-07-29T07:09:07.828Z,22.48
2022-07-29T07:11:37.776Z,22.74
2022-07-29T07:14:07.895Z,23.00
2022-07-29T07:16:37.769Z,23.21
2022-07-29T07:19:07.794Z,23.45
2022-07-29T07:21:37.823Z,23.74
2022-07-29T07:24:07.830Z,23.85
2022-07-29T07:26:39.511Z,23.91
2022-07-29T07:29:07.715Z,23.89
2022-07-29T07:31:38.025Z,23.74
2022-07-29T07:34:07.767Z,23.72
2022-07-29T07:36:37.995Z,23.58
2022-07-29T07:39:07.857Z,23.31
2022-07-29T07:41:37.717Z,23.12
2022-07-29T07:44:08.734Z,22.73
2022-07-29T07:46:37.830Z,22.62
2022-07-29T07:49:07.820Z,22.53
2022-07-29T07:51:38.578Z,22.43
2022-07-29T07:54:07.725Z,22.01
2022-07-29T07:56:37.880Z,21.94
2022-07-29T07:59:07.749Z,22.00
2022-07-29T08:01:48.451Z,22.08
2022-07-29T08:04:08.369Z,22.11
2022-07-29T08:06:37.868Z,22.03
2022-07-29T08:09:27.637Z,22.27
2022-07-29T08:11:38.008Z,22.31
2022-07-29T08:14:08.117Z,22.36
2022-07-29T08:16:38.085Z,22.37
2022-07-29T08:19:08.081Z,22.30
2022-07-29T08:21:38.519Z,22.57
2022-07-29T08:24:17.715Z,22.74
2022-07-29T08:26:37.732Z,22.95
2022-07-29T08:29:08.096Z,23.52
2022-07-29T08:31:38.445Z,24.07
2022-07-29T08:34:07.996Z,24.73
2022-07-29T08:36:38.265Z,25.12
2022-07-29T08:39:07.720Z,25.33
2022-07-29T08:41:38.135Z,25.38
2022-07-29T08:44:09.181Z,25.30
2022-07-29T08:46:38.923Z,25.19
2022-07-29T08:49:07.871Z,25.00
2022-07-29T08:51:49.606Z,24.65
2022-07-29T08:54:09.600Z,24.36
2022-07-29T08:56:39.298Z,24.27
2022-07-29T08:59:09.520Z,23.85
2022-07-29T09:01:42.541Z,23.79
2022-07-29T09:04:11.433Z,23.72
2022-07-29T09:06:43.630Z,23.66
2022-07-29T09:09:08.368Z,23.54
2022-07-29T09:14:10.994Z,23.51
2022-07-29T09:16:53.411Z,23.48
2022-07-29T09:19:21.970Z,23.39
2022-07-29T09:21:50.651Z,23.37
2022-07-29T09:24:09.596Z,23.33
2022-07-29T09:26:40.490Z,23.30
2022-07-29T09:29:09.960Z,23.26
2022-07-29T09:36:39.553Z,23.28
2022-07-29T09:44:08.001Z,23.30
2022-07-29T09:46:38.169Z,23.33
2022-07-29T09:51:39.035Z,23.36
2022-07-29T09:54:26.206Z,23.38
2022-07-29T09:56:40.503Z,23.39
2022-07-29T09:59:08.887Z,23.30
2022-07-29T10:01:37.911Z,23.32
2022-07-29T10:04:07.995Z,23.30
2022-07-29T10:07:03.974Z,23.27
2022-07-29T10:09:08.739Z,23.15
2022-07-29T10:11:49.419Z,23.11
2022-07-29T10:14:07.906Z,23.02
2022-07-29T10:16:37.964Z,23.03
2022-07-29T10:19:07.915Z,22.92
2022-07-29T10:21:39.715Z,22.85
2022-07-29T10:24:15.122Z,22.87
2022-07-29T10:26:40.894Z,22.88
2022-07-29T10:29:08.004Z,22.91
2022-07-29T10:31:47.393Z,22.95
2022-07-29T10:34:17.944Z,23.05
2022-07-29T10:36:54.080Z,23.12
2022-07-29T10:39:22.213Z,23.20
2022-07-29T10:41:56.424Z,23.33
2022-07-29T10:44:17.341Z,23.44
2022-07-29T10:46:39.754Z,23.56
2022-07-29T10:49:10.626Z,23.58
2022-07-29T10:51:51.536Z,23.67
2022-07-29T10:54:08.011Z,23.71
2022-07-29T10:56:37.925Z,23.73
2022-07-29T10:59:26.067Z,23.71
2022-07-29T11:04:08.203Z,23.59
2022-07-29T11:06:57.593Z,23.56
2022-07-29T11:09:16.608Z,23.40
2022-07-29T11:11:40.508Z,23.42
2022-07-29T11:14:10.464Z,23.38
2022-07-29T11:19:21.607Z,23.30
2022-07-29T11:21:53.647Z,23.32
2022-07-29T11:24:28.618Z,23.34
2022-07-29T11:26:37.864Z,23.30
2022-07-29T11:29:18.749Z,23.25
2022-07-29T11:31:41.689Z,23.26
2022-07-29T11:36:57.966Z,23.23
2022-07-29T11:39:25.482Z,23.17
2022-07-29T11:41:39.065Z,23.20
2022-07-29T11:46:48.597Z,23.11
2022-07-29T11:49:09.863Z,22.96
2022-07-29T11:51:48.302Z,23.03
2022-07-29T11:54:13.697Z,22.93
2022-07-29T11:56:43.588Z,22.85
2022-07-29T11:59:09.236Z,22.84
2022-07-29T12:02:12.121Z,22.96
2022-07-29T12:06:38.050Z,22.91
2022-07-29T12:07:03.361Z,23.21
2022-07-29T12:09:08.879Z,22.73
2022-07-29T12:11:37.998Z,22.91
2022-07-29T12:14:07.892Z,22.92
2022-07-29T12:16:38.086Z,23.15
2022-07-29T12:19:08.079Z,23.29
2022-07-29T12:21:49.442Z,23.51
2022-07-29T12:24:08.769Z,23.71
2022-07-29T12:26:49.708Z,23.91
2022-07-29T12:29:20.459Z,24.07
2022-07-29T12:31:43.517Z,24.29
2022-07-29T12:34:08.101Z,24.52
2022-07-29T12:36:38.357Z,24.75
2022-07-29T12:39:09.219Z,24.99
2022-07-29T12:41:38.657Z,25.30
2022-07-29T12:44:08.148Z,25.59
2022-07-29T12:46:37.960Z,25.76
2022-07-29T12:49:08.162Z,25.94
2022-07-29T12:54:10.489Z,25.78
2022-07-29T12:56:42.583Z,25.80
2022-07-29T12:59:12.920Z,25.68
2022-07-29T13:01:38.159Z,25.74
2022-07-29T13:04:07.983Z,25.79
2022-07-29T13:06:41.244Z,25.80
2022-07-29T13:09:10.711Z,25.83
2022-07-29T13:11:42.184Z,25.89
2022-07-29T13:14:09.511Z,25.94
2022-07-29T13:16:57.915Z,25.98
2022-07-29T13:19:11.100Z,26.02
2022-07-29T13:21:39.467Z,26.08
2022-07-29T13:24:08.631Z,26.13
2022-07-29T13:26:40.803Z,26.18
2022-07-29T13:29:07.991Z,26.26
2022-07-29T13:31:37.899Z,26.39
2022-07-29T13:34:07.925Z,26.54
2022-07-29T13:36:41.356Z,26.70
2022-07-29T13:39:07.951Z,26.83
2022-07-29T13:41:37.990Z,26.90
2022-07-29T13:44:07.901Z,27.08
2022-07-29T13:46:39.560Z,27.20
2022-07-29T13:49:07.947Z,27.33
2022-07-29T13:51:38.162Z,27.47
2022-07-29T13:54:08.040Z,27.60
2022-07-29T13:56:37.921Z,27.71
2022-07-29T13:59:07.942Z,27.77
2022-07-29T14:01:41.403Z,27.83
2022-07-29T14:04:08.777Z,27.59
2022-07-29T14:06:38.479Z,27.49
2022-07-29T14:09:08.590Z,27.47
2022-07-29T14:11:38.400Z,27.49
2022-07-29T14:16:42.424Z,27.46
2022-07-29T14:19:08.156Z,27.49
2022-07-29T14:21:38.882Z,27.56
2022-07-29T14:24:17.045Z,27.60
2022-07-29T14:26:38.124Z,27.70
2022-07-29T14:29:08.093Z,27.78
2022-07-29T14:31:38.160Z,27.89
2022-07-29T14:34:07.924Z,27.96
2022-07-29T14:36:37.942Z,27.98
2022-07-29T14:39:07.904Z,27.93
2022-07-29T14:41:38.124Z,27.74
2022-07-29T14:44:07.972Z,27.73
2022-07-29T14:46:38.180Z,27.66
2022-07-29T14:49:08.104Z,27.57
2022-07-29T14:54:08.242Z,27.59
2022-07-29T14:56:37.957Z,27.63
2022-07-29T15:01:38.161Z,27.69
2022-07-29T15:04:07.926Z,27.73
2022-07-29T15:09:08.007Z,27.67
2022-07-29T15:11:38.712Z,27.69
2022-07-29T15:19:08.436Z,27.66
2022-07-29T15:21:41.473Z,27.68
2022-07-29T15:24:07.991Z,27.69
2022-07-29T15:26:37.987Z,27.68
2022-07-29T15:29:08.079Z,27.61
2022-07-29T15:31:38.590Z,27.56
2022-07-29T15:34:08.247Z,27.49
2022-07-29T15:36:51.932Z,27.41
2022-07-29T15:39:09.092Z,27.32
2022-07-29T15:41:37.980Z,27.29
2022-07-29T15:44:08.220Z,27.26
2022-07-29T15:46:47.876Z,27.23
2022-07-29T15:49:08.169Z,27.18
2022-07-29T15:51:38.094Z,27.20
2022-07-29T15:54:08.000Z,27.22
2022-07-29T15:56:38.627Z,27.18
2022-07-29T15:59:07.952Z,27.19
2022-07-29T16:01:37.977Z,27.22
2022-07-29T16:04:08.278Z,27.23
2022-07-29T16:06:38.246Z,27.25
2022-07-29T16:09:08.431Z,27.20
2022-07-29T16:11:38.100Z,27.24
2022-07-29T16:16:38.565Z,27.21
2022-07-29T16:19:08.597Z,27.14
2022-07-29T16:21:38.400Z,27.11
2022-07-29T16:24:08.277Z,27.08
2022-07-29T16:26:38.146Z,27.01
2022-07-29T16:29:08.023Z,26.88
2022-07-29T16:34:08.210Z,26.84
2022-07-29T16:36:37.977Z,26.79
2022-07-29T16:39:09.933Z,26.74
2022-07-29T16:41:38.090Z,26.76
2022-07-29T16:44:08.408Z,26.77
2022-07-29T16:46:39.097Z,26.74
2022-07-29T16:49:08.218Z,26.69
2022-07-29T16:51:38.139Z,26.72
2022-07-29T16:54:09.793Z,26.73
2022-07-29T16:59:08.057Z,26.69
2022-07-29T17:01:38.270Z,26.68
2022-07-29T17:04:08.248Z,26.70
2022-07-29T17:06:39.615Z,26.69
2022-07-29T17:09:09.930Z,26.65
2022-07-29T17:11:53.989Z,26.68
2022-07-29T17:14:09.051Z,26.67
2022-07-29T17:16:38.078Z,26.65
2022-07-29T17:19:08.176Z,26.61
2022-07-29T17:21:38.047Z,26.62
2022-07-29T17:24:08.082Z,26.63
2022-07-29T17:26:38.889Z,26.59
2022-07-29T17:29:08.061Z,26.55
2022-07-29T17:31:38.135Z,26.53
2022-07-29T17:34:08.860Z,26.52
2022-07-29T17:36:38.213Z,26.44
2022-07-29T17:39:10.290Z,26.38
2022-07-29T17:41:39.947Z,26.37
2022-07-29T17:44:08.454Z,26.31
2022-07-29T17:46:39.382Z,26.30
2022-07-29T17:49:08.297Z,26.23
2022-07-29T17:51:38.383Z,26.25
2022-07-29T17:54:08.163Z,26.22
2022-07-29T17:56:38.200Z,26.14
2022-07-29T17:59:09.212Z,26.03
2022-07-29T18:01:40.271Z,26.04
2022-07-29T18:04:09.037Z,26.02
2022-07-29T18:06:38.057Z,25.99
2022-07-29T18:09:08.069Z,25.91
2022-07-29T18:11:38.379Z,25.92
2022-07-29T18:14:08.110Z,25.89
2022-07-29T18:16:38.754Z,25.88
2022-07-29T18:19:08.054Z,25.80
2022-07-29T18:21:51.211Z,25.79
2022-07-29T18:24:08.476Z,25.78
2022-07-29T18:26:38.167Z,25.75
2022-07-29T18:29:08.101Z,25.66
2022-07-29T18:31:40.144Z,25.65
2022-07-29T18:34:08.103Z,25.61
2022-07-29T18:36:38.263Z,25.56
2022-07-29T18:39:08.134Z,25.48
2022-07-29T18:41:38.581Z,25.41
2022-07-29T18:44:08.755Z,25.33
2022-07-29T18:46:38.267Z,25.25
2022-07-29T18:49:08.258Z,25.13
2022-07-29T18:51:38.222Z,25.06
2022-07-29T18:54:09.149Z,24.94
2022-07-29T18:56:38.145Z,24.82
2022-07-29T18:59:09.445Z,24.73
2022-07-29T19:01:38.203Z,24.65
2022-07-29T19:04:08.483Z,24.37
2022-07-29T19:06:39.827Z,24.35
2022-07-29T19:09:09.002Z,24.26
2022-07-29T19:11:38.439Z,24.23
2022-07-29T19:14:08.237Z,24.15
2022-07-29T19:16:38.170Z,24.03
2022-07-29T19:19:08.219Z,23.88
2022-07-29T19:21:38.118Z,23.84
2022-07-29T19:24:14.992Z,23.76
2022-07-29T19:26:43.046Z,23.67
2022-07-29T19:29:08.450Z,23.54
2022-07-29T19:31:38.513Z,23.46
2022-07-29T19:34:08.504Z,23.42
2022-07-29T19:36:38.137Z,23.35
2022-07-29T19:39:08.640Z,23.23
2022-07-29T19:41:38.199Z,23.19
2022-07-29T19:44:08.103Z,23.12
2022-07-29T19:46:38.622Z,23.04
2022-07-29T19:49:09.203Z,22.93
2022-07-29T19:51:38.654Z,22.89
2022-07-29T19:54:08.096Z,22.83
2022-07-29T19:56:39.145Z,22.76
2022-07-29T19:59:08.081Z,22.65
2022-07-29T20:01:38.380Z,22.63
2022-07-29T20:04:08.315Z,22.57
2022-07-29T20:06:38.072Z,22.51
2022-07-29T20:09:08.192Z,22.45
2022-07-29T20:11:38.872Z,22.41
2022-07-29T20:14:08.128Z,22.36
2022-07-29T20:16:38.192Z,22.30
2022-07-29T20:19:08.239Z,22.22
2022-07-29T20:21:38.198Z,22.16
2022-07-29T20:24:09.437Z,22.10
2022-07-29T20:26:38.131Z,22.04
2022-07-29T20:29:08.283Z,21.96
2022-07-29T20:31:38.298Z,21.91
2022-07-29T20:34:09.059Z,21.85
2022-07-29T20:36:38.263Z,21.80
2022-07-29T20:39:08.113Z,21.73
2022-07-29T20:41:38.186Z,21.70
2022-07-29T20:44:08.409Z,21.64
2022-07-29T20:46:38.356Z,21.59
2022-07-29T20:49:08.351Z,21.54
2022-07-29T20:51:43.477Z,21.49
2022-07-29T20:54:08.858Z,21.45
2022-07-29T20:56:38.174Z,21.39
2022-07-29T20:59:08.491Z,21.33
2022-07-29T21:01:38.196Z,21.30
2022-07-29T21:04:08.232Z,21.24
2022-07-29T21:06:38.183Z,21.20
2022-07-29T21:09:08.167Z,21.12
2022-07-29T21:11:43.419Z,21.09
2022-07-29T21:14:08.192Z,21.04
2022-07-29T21:16:38.108Z,20.99
2022-07-29T21:19:08.189Z,20.88
2022-07-29T21:21:38.147Z,20.86
2022-07-29T21:26:38.280Z,20.81
2022-07-29T21:29:08.260Z,20.75
2022-07-29T21:31:39.938Z,20.73
2022-07-29T21:34:08.358Z,20.69
2022-07-29T21:36:48.770Z,20.65
2022-07-29T21:39:08.232Z,20.60
2022-07-29T21:41:38.251Z,20.58
2022-07-29T21:44:08.124Z,20.53
2022-07-29T21:46:38.217Z,20.49
2022-07-29T21:49:08.216Z,20.41
2022-07-29T21:51:38.327Z,20.39
2022-07-29T21:54:08.267Z,20.35
2022-07-29T21:56:38.194Z,20.31
2022-07-29T21:59:09.852Z,20.26
2022-07-29T22:01:38.974Z,20.24
2022-07-29T22:04:08.554Z,20.20
2022-07-29T22:06:38.464Z,20.16
2022-07-29T22:09:08.190Z,20.11
2022-07-29T22:11:38.165Z,20.08
2022-07-29T22:14:08.455Z,20.04
2022-07-29T22:16:38.400Z,20.00
2022-07-29T22:19:08.136Z,19.94
2022-07-29T22:21:38.721Z,19.90
2022-07-29T22:24:09.267Z,19.86
2022-07-29T22:26:38.263Z,19.80
2022-07-29T22:29:08.451Z,19.73
2022-07-29T22:31:38.231Z,19.69
2022-07-29T22:34:11.720Z,19.64
2022-07-29T22:36:38.444Z,19.59
2022-07-29T22:39:08.351Z,19.51
2022-07-29T22:41:38.540Z,19.48
2022-07-29T22:44:08.231Z,19.43
2022-07-29T22:46:38.332Z,19.39
2022-07-29T22:49:08.316Z,19.32
2022-07-29T22:51:38.199Z,19.29
2022-07-29T22:54:08.422Z,19.24
2022-07-29T22:56:38.274Z,19.19
2022-07-29T22:59:08.449Z,19.11
2022-07-29T23:01:38.382Z,19.08
2022-07-29T23:04:08.392Z,19.02
2022-07-29T23:06:38.394Z,18.99
2022-07-29T23:09:08.156Z,18.94
2022-07-29T23:11:38.198Z,18.90
2022-07-29T23:14:09.611Z,18.87
2022-07-29T23:16:38.348Z,18.82
2022-07-29T23:19:08.293Z,18.77
2022-07-29T23:21:38.330Z,18.73
2022-07-29T23:24:08.504Z,18.69
2022-07-29T23:26:38.304Z,18.64
2022-07-29T23:29:08.258Z,18.58
2022-07-29T23:31:41.818Z,18.54
2022-07-29T23:34:08.312Z,18.49
2022-07-29T23:36:38.475Z,18.44
2022-07-29T23:39:10.245Z,18.37
2022-07-29T23:41:38.510Z,18.34
2022-07-29T23:44:08.497Z,18.30
2022-07-29T23:46:38.307Z,18.26
2022-07-29T23:49:08.392Z,18.20
2022-07-29T23:51:38.207Z,18.17
2022-07-29T23:54:08.206Z,18.14
2022-07-29T23:56:38.378Z,18.09
2022-07-29T23:59:08.170Z,18.03
